createdAt,value
2022-11-28T00:01:17.092Z,11.73
2022-11-28T00:03:43.622Z,21.50
2022-11-28T00:06:10.337Z,18.52
2022-11-28T00:08:37.130Z,18.35
2022-11-28T00:11:09.167Z,12.65
2022-11-28T00:13:36.847Z,15.68
2022-11-28T00:16:05.384Z,11.82
2022-11-28T00:18:32.264Z,25.02
2022-11-28T00:21:01.032Z,12.25
2022-11-28T00:23:28.106Z,19.73
2022-11-28T00:25:59.316Z,18.05
2022-11-28T00:28:25.833Z,14.23
2022-11-28T00:30:52.279Z,19.75
2022-11-28T00:33:18.799Z,17.08
2022-11-28T00:35:45.241Z,17.60
2022-11-28T00:38:11.755Z,17.70
2022-11-28T00:40:38.598Z,19.25
2022-11-28T00:43:05.159Z,13.52
2022-11-28T00:45:31.760Z,16.30
2022-11-28T00:47:58.156Z,16.55
2022-11-28T00:50:25.122Z,14.40
2022-11-28T00:52:51.775Z,15.65
2022-11-28T00:55:18.241Z,13.95
2022-11-28T00:57:46.342Z,16.42
2022-11-28T01:00:13.363Z,13.55
2022-11-28T01:02:40.044Z,11.52
2022-11-28T01:05:07.018Z,14.15
2022-11-28T01:07:34.027Z,12.68
2022-11-28T01:10:00.568Z,19.83
2022-11-28T01:12:27.006Z,13.77
2022-11-28T01:14:53.659Z,10.23
2022-11-28T01:17:20.058Z,18.75
2022-11-28T01:19:46.552Z,22.58
2022-11-28T01:22:13.018Z,16.67
2022-11-28T01:24:39.668Z,16.45
2022-11-28T01:27:06.238Z,12.30
2022-11-28T01:29:32.757Z,16.50
2022-11-28T01:31:59.413Z,8.73
2022-11-28T01:34:26.034Z,10.55
2022-11-28T01:36:52.570Z,14.35
2022-11-28T01:39:19.249Z,19.77
2022-11-28T01:41:45.834Z,19.75
2022-11-28T01:44:15.555Z,14.50
2022-11-28T01:46:42.856Z,18.95
2022-11-28T01:49:19.741Z,14.80
2022-11-28T01:51:49.203Z,11.07
2022-11-28T01:54:18.588Z,10.57
2022-11-28T01:56:51.219Z,12.20
2022-11-28T01:59:20.194Z,18.67
2022-11-28T02:01:46.774Z,12.25
2022-11-28T02:04:14.213Z,9.52
2022-11-28T02:06:42.208Z,12.88
2022-11-28T02:09:14.118Z,19.85
2022-11-28T02:12:31.717Z,15.23
2022-11-28T02:15:22.989Z,13.60
2022-11-28T02:18:12.036Z,13.65
2022-11-28T02:20:44.721Z,11.00
2022-11-28T02:23:30.584Z,21.05
2022-11-28T02:26:23.443Z,11.77
2022-11-28T02:29:24.457Z,18.35
2022-11-28T02:32:15.798Z,9.13
2022-11-28T02:34:54.946Z,12.80
2022-11-28T02:37:42.696Z,18.20
2022-11-28T02:40:35.337Z,12.80
2022-11-28T02:43:28.315Z,12.05
2022-11-28T02:46:06.677Z,13.88
2022-11-28T02:48:43.954Z,11.18
2022-11-28T02:51:17.140Z,15.73
2022-11-28T02:53:45.858Z,14.05
2022-11-28T02:56:13.162Z,9.27
2022-11-28T02:58:39.833Z,11.20
2022-11-28T03:01:12.645Z,11.93
2022-11-28T03:04:02.936Z,13.32
2022-11-28T03:06:49.694Z,12.73
2022-11-28T03:09:35.679Z,11.15
2022-11-28T03:14:49.182Z,13.18
2022-11-28T03:17:38.730Z,17.25
2022-11-28T03:20:15.382Z,12.15
2022-11-28T03:22:54.309Z,17.73
2022-11-28T03:25:25.601Z,10.50
2022-11-28T03:28:01.416Z,11.43
2022-11-28T03:33:01.448Z,10.00
2022-11-28T03:35:32.439Z,13.75
2022-11-28T03:38:13.078Z,14.30
2022-11-28T03:40:45.690Z,8.00
2022-11-28T03:43:19.192Z,10.82
2022-11-28T03:45:51.486Z,15.52
2022-11-28T03:48:30.829Z,11.75
2022-11-28T03:51:14.460Z,13.82
2022-11-28T03:53:43.951Z,14.30
2022-11-28T03:56:26.352Z,8.40
2022-11-28T03:59:00.696Z,9.65
2022-11-28T04:01:34.266Z,16.58
2022-11-28T04:04:30.509Z,15.20
2022-11-28T04:07:22.739Z,9.52
2022-11-28T04:09:59.644Z,12.02
2022-11-28T04:12:44.636Z,13.00
2022-11-28T04:15:41.533Z,9.53
2022-11-28T04:18:35.229Z,12.48
2022-11-28T04:21:15.865Z,14.35
2022-11-28T04:23:44.867Z,19.35
2022-11-28T04:26:19.491Z,14.15
2022-11-28T04:28:49.460Z,14.73
2022-11-28T04:31:17.966Z,18.65
2022-11-28T04:33:50.781Z,15.05
2022-11-28T04:36:20.350Z,11.00
2022-11-28T04:38:56.014Z,13.00
2022-11-28T04:44:22.266Z,9.20
2022-11-28T04:46:52.606Z,15.50
2022-11-28T04:49:19.133Z,11.75
2022-11-28T04:52:09.697Z,10.85
2022-11-28T04:54:57.068Z,19.80
2022-11-28T04:57:45.913Z,13.65
2022-11-28T05:00:16.972Z,13.45
2022-11-28T05:02:45.633Z,11.60
2022-11-28T05:05:16.229Z,11.40
2022-11-28T05:07:42.696Z,7.65
2022-11-28T05:10:12.310Z,15.43
2022-11-28T05:12:38.888Z,12.00
2022-11-28T05:15:06.198Z,12.95
2022-11-28T05:17:34.147Z,10.93
2022-11-28T05:20:03.353Z,13.50
2022-11-28T05:22:29.756Z,14.98
2022-11-28T05:24:56.258Z,10.25
2022-11-28T05:27:22.717Z,12.48
2022-11-28T05:29:52.217Z,11.25
2022-11-28T05:32:18.916Z,17.70
2022-11-28T05:34:45.355Z,15.27
2022-11-28T05:37:11.870Z,12.90
2022-11-28T05:39:38.485Z,23.27
2022-11-28T05:42:05.079Z,15.75
2022-11-28T05:44:31.568Z,14.13
2022-11-28T05:46:58.009Z,10.13
2022-11-28T05:49:25.433Z,15.77
2022-11-28T05:51:51.854Z,14.05
2022-11-28T05:54:18.256Z,15.93
2022-11-28T05:56:44.678Z,14.82
2022-11-28T05:59:13.351Z,11.82
2022-11-28T06:01:40.100Z,13.07
2022-11-28T06:04:06.678Z,10.98
2022-11-28T06:06:35.394Z,17.60
2022-11-28T06:09:02.361Z,14.10
2022-11-28T06:11:30.800Z,11.70
2022-11-28T06:13:57.311Z,10.57
2022-11-28T06:16:26.335Z,12.05
2022-11-28T06:18:58.219Z,15.60
2022-11-28T06:21:25.403Z,10.02
2022-11-28T06:23:51.933Z,16.35
2022-11-28T06:26:23.015Z,15.60
2022-11-28T06:28:49.973Z,11.00
2022-11-28T06:31:19.331Z,18.05
2022-11-28T06:33:48.413Z,13.00
2022-11-28T06:36:16.988Z,14.68
2022-11-28T06:38:44.399Z,16.63
2022-11-28T06:41:14.495Z,11.40
2022-11-28T06:43:41.757Z,14.55
2022-11-28T06:46:16.255Z,15.10
2022-11-28T06:48:54.854Z,17.50
2022-11-28T06:51:21.686Z,17.90
2022-11-28T06:53:57.215Z,13.60
2022-11-28T06:56:26.348Z,13.45
2022-11-28T06:58:59.528Z,14.18
2022-11-28T07:01:29.799Z,16.98
2022-11-28T07:04:08.840Z,15.15
2022-11-28T07:06:36.046Z,20.95
2022-11-28T07:09:06.331Z,17.38
2022-11-28T07:11:49.866Z,18.00
2022-11-28T07:14:17.758Z,12.52
2022-11-28T07:16:44.846Z,13.90
2022-11-28T07:19:13.763Z,18.88
2022-11-28T07:21:42.243Z,10.60
2022-11-28T07:24:10.987Z,13.98
2022-11-28T07:26:41.393Z,13.43
2022-11-28T07:29:13.719Z,12.27
2022-11-28T07:31:44.076Z,16.15
2022-11-28T07:37:07.663Z,11.52
2022-11-28T07:39:38.295Z,19.52
2022-11-28T07:42:11.857Z,14.23
2022-11-28T07:44:41.371Z,17.88
2022-11-28T07:47:08.806Z,18.08
2022-11-28T07:49:36.018Z,19.67
2022-11-28T07:52:04.128Z,13.27
2022-11-28T07:54:30.719Z,19.02
2022-11-28T07:57:14.651Z,13.65
2022-11-28T07:59:41.552Z,15.82
2022-11-28T08:02:39.804Z,22.17
2022-11-28T08:55:53.627Z,18.33
2022-11-28T08:58:28.104Z,20.75
2022-11-28T09:01:12.781Z,18.20
2022-11-28T09:10:13.486Z,15.68
2022-11-28T09:14:25.618Z,18.10
2022-11-28T09:29:24.355Z,20.55
2022-11-28T09:38:36.508Z,21.67
2022-11-28T09:41:45.317Z,20.27
2022-11-28T09:44:45.508Z,20.42
2022-11-28T09:47:27.814Z,24.90
2022-11-28T09:50:41.091Z,16.70
2022-11-28T09:53:34.424Z,18.88
2022-11-28T09:56:53.151Z,24.25
2022-11-28T09:59:33.920Z,17.80
2022-11-28T10:03:37.410Z,18.38
2022-11-28T10:07:50.975Z,17.80
2022-11-28T10:17:25.297Z,24.00
2022-11-28T10:22:51.342Z,18.52
2022-11-28T10:32:09.869Z,18.48
2022-11-28T10:37:33.937Z,16.38
2022-11-28T10:40:36.925Z,19.50
2022-11-28T10:43:34.485Z,18.77
2022-11-28T10:46:12.802Z,18.88
2022-11-28T10:48:58.444Z,17.48
2022-11-28T10:51:51.225Z,21.73
2022-11-28T10:54:46.964Z,17.38
2022-11-28T10:57:42.985Z,26.75
2022-11-28T11:00:13.120Z,19.50
2022-11-28T11:02:51.516Z,17.23
2022-11-28T11:05:29.589Z,22.50
2022-11-28T11:07:59.798Z,20.02
2022-11-28T11:10:41.462Z,22.35
2022-11-28T11:13:20.737Z,17.52
2022-11-28T11:15:58.221Z,22.13
2022-11-28T11:18:29.196Z,12.60
2022-11-28T11:21:09.982Z,19.02
2022-11-28T11:23:38.433Z,23.17
2022-11-28T11:26:10.305Z,20.45
2022-11-28T11:28:50.779Z,18.02
2022-11-28T11:31:24.555Z,20.08
2022-11-28T11:34:00.393Z,20.88
2022-11-28T11:36:30.277Z,21.90
2022-11-28T11:39:22.010Z,18.80
2022-11-28T11:42:10.658Z,14.50
2022-11-28T11:44:37.625Z,18.30
2022-11-28T11:47:07.482Z,18.25
2022-11-28T11:49:41.415Z,20.88
2022-11-28T11:52:25.914Z,23.30
2022-11-28T11:54:56.268Z,19.63
2022-11-28T11:57:33.106Z,22.95
2022-11-28T12:00:06.870Z,20.85
2022-11-28T12:02:59.858Z,19.08
2022-11-28T12:06:06.034Z,21.48
2022-11-28T12:08:36.956Z,32.10
2022-11-28T12:11:19.591Z,22.00
2022-11-28T12:13:46.235Z,28.20
2022-11-28T12:16:24.969Z,18.98
2022-11-28T12:19:20.928Z,30.45
2022-11-28T12:22:18.190Z,22.42
2022-11-28T12:24:51.227Z,23.73
2022-11-28T12:27:34.290Z,21.45
2022-11-28T12:30:25.362Z,25.95
2022-11-28T12:33:10.331Z,21.98
2022-11-28T12:35:47.413Z,20.60
2022-11-28T12:38:31.258Z,31.17
2022-11-28T12:41:13.886Z,21.25
2022-11-28T12:43:55.754Z,19.17
2022-11-28T12:46:42.688Z,21.38
2022-11-28T12:49:19.760Z,31.98
2022-11-28T12:51:59.916Z,34.33
2022-11-28T12:54:53.234Z,21.15
2022-11-28T12:57:42.607Z,24.48
2022-11-28T13:00:20.926Z,18.92
2022-11-28T13:03:24.767Z,24.63
2022-11-28T13:06:24.612Z,21.90
2022-11-28T13:09:21.608Z,27.77
2022-11-28T13:12:26.379Z,22.30
2022-11-28T13:15:07.232Z,26.27
2022-11-28T13:18:00.457Z,28.20
2022-11-28T13:20:41.979Z,20.58
2022-11-28T13:23:20.421Z,25.65
2022-11-28T13:25:56.960Z,26.83
2022-11-28T13:28:51.879Z,27.90
2022-11-28T13:31:29.562Z,20.77
2022-11-28T13:33:56.775Z,24.92
2022-11-28T13:39:41.768Z,21.25
2022-11-28T13:45:46.638Z,25.10
2022-11-28T13:49:13.096Z,28.88
2022-11-28T13:51:31.472Z,21.95
2022-11-28T13:54:18.219Z,19.60
2022-11-28T13:57:05.407Z,22.00
2022-11-28T13:59:33.120Z,24.25
2022-11-28T14:02:02.516Z,27.38
2022-11-28T14:04:31.751Z,28.27
2022-11-28T14:07:06.942Z,22.55
2022-11-28T14:09:53.490Z,24.98
2022-11-28T14:12:50.188Z,23.73
2022-11-28T14:15:53.330Z,28.02
2022-11-28T14:18:57.969Z,29.08
2022-11-28T14:21:40.742Z,24.77
2022-11-28T14:25:04.275Z,18.00
2022-11-28T14:27:37.863Z,25.83
2022-11-28T14:30:16.041Z,23.23
2022-11-28T14:32:43.626Z,22.95
2022-11-28T14:35:51.989Z,21.10
2022-11-28T14:38:41.200Z,20.38
2022-11-28T14:41:11.860Z,28.55
2022-11-28T14:43:46.726Z,21.33
2022-11-28T14:46:21.790Z,25.20
2022-11-28T14:48:57.484Z,27.52
2022-11-28T14:52:37.002Z,25.73
2022-11-28T14:54:56.167Z,25.42
2022-11-28T14:57:25.558Z,24.85
2022-11-28T14:59:54.124Z,20.55
2022-11-28T15:02:32.289Z,22.83
2022-11-28T15:05:14.941Z,24.80
2022-11-28T15:07:59.853Z,25.30
2022-11-28T15:10:43.635Z,28.80
2022-11-28T15:13:26.694Z,25.98
2022-11-28T15:15:54.062Z,26.63
2022-11-28T15:18:23.717Z,26.77
2022-11-28T15:21:01.073Z,22.50
2022-11-28T15:23:38.347Z,29.33
2022-11-28T15:28:35.342Z,24.42
2022-11-28T15:31:05.559Z,26.17
2022-11-28T15:33:32.709Z,31.08
2022-11-28T15:36:03.570Z,32.20
2022-11-28T15:38:31.814Z,32.88
2022-11-28T15:41:00.287Z,32.05
2022-11-28T15:43:27.912Z,22.33
2022-11-28T15:45:59.665Z,30.13
2022-11-28T15:48:40.169Z,31.20
2022-11-28T15:51:07.795Z,23.13
2022-11-28T15:53:40.822Z,25.38
2022-11-28T15:56:15.545Z,29.95
2022-11-28T15:58:44.152Z,27.05
2022-11-28T16:01:24.102Z,33.08
2022-11-28T16:04:05.557Z,24.95
2022-11-28T16:06:35.585Z,29.95
2022-11-28T16:09:23.369Z,27.67
2022-11-28T16:11:52.430Z,33.28
2022-11-28T16:14:29.042Z,29.27
2022-11-28T16:17:01.843Z,27.75
2022-11-28T16:19:31.106Z,24.05
2022-11-28T16:22:07.787Z,26.75
2022-11-28T16:24:51.763Z,30.83
2022-11-28T16:27:39.353Z,24.77
2022-11-28T16:30:41.512Z,25.60
2022-11-28T16:33:41.234Z,32.13
2022-11-28T16:36:26.574Z,33.47
2022-11-28T16:39:06.527Z,34.08
2022-11-28T16:41:33.942Z,31.13
2022-11-28T16:44:03.905Z,32.75
2022-11-28T16:46:39.835Z,23.50
2022-11-28T16:49:24.718Z,30.88
2022-11-28T16:52:23.950Z,32.47
2022-11-28T16:54:54.768Z,30.02
2022-11-28T16:57:22.372Z,25.95
2022-11-28T16:59:54.489Z,32.10
2022-11-28T17:02:23.481Z,31.02
2022-11-28T17:04:52.245Z,34.92
2022-11-28T17:07:23.988Z,33.22
2022-11-28T17:09:50.619Z,37.47
2022-11-28T17:12:26.385Z,31.02
2022-11-28T17:14:54.249Z,30.92
2022-11-28T17:17:23.249Z,29.38
2022-11-28T17:19:50.167Z,29.67
2022-11-28T17:22:20.098Z,29.83
2022-11-28T17:24:48.488Z,38.28
2022-11-28T17:27:15.917Z,29.15
2022-11-28T17:29:43.572Z,35.58
2022-11-28T17:32:13.980Z,26.40
2022-11-28T17:34:42.105Z,39.28
2022-11-28T17:37:09.438Z,27.80
2022-11-28T17:39:35.973Z,35.10
2022-11-28T17:42:02.455Z,29.65
2022-11-28T17:44:31.351Z,37.72
2022-11-28T17:47:00.935Z,36.80
2022-11-28T17:49:28.768Z,38.08
2022-11-28T17:51:55.977Z,35.45
2022-11-28T17:54:24.366Z,31.40
2022-11-28T17:56:52.851Z,43.55
2022-11-28T17:59:22.007Z,37.03
2022-11-28T18:01:49.287Z,37.75
2022-11-28T18:04:22.053Z,33.95
2022-11-28T18:06:48.764Z,39.20
2022-11-28T18:09:16.041Z,34.20
2022-11-28T18:11:46.273Z,33.45
2022-11-28T18:14:13.245Z,32.70
2022-11-28T18:16:42.061Z,32.22
2022-11-28T18:19:08.962Z,37.90
2022-11-28T18:21:35.473Z,34.65
2022-11-28T18:24:02.030Z,32.80
2022-11-28T18:26:29.559Z,33.45
2022-11-28T18:28:58.055Z,40.13
2022-11-28T18:31:27.836Z,37.17
2022-11-28T18:34:00.268Z,39.40
2022-11-28T18:36:30.713Z,30.73
2022-11-28T18:38:59.529Z,29.17
2022-11-28T18:41:27.175Z,31.45
2022-11-28T18:43:58.629Z,36.45
2022-11-28T18:46:27.017Z,44.03
2022-11-28T18:48:53.562Z,36.13
2022-11-28T18:51:30.061Z,33.53
2022-11-28T18:54:00.529Z,36.97
2022-11-28T18:56:29.232Z,32.50
2022-11-28T18:58:57.206Z,34.35
2022-11-28T19:01:31.244Z,35.78
2022-11-28T19:04:03.909Z,37.17
2022-11-28T19:06:31.546Z,34.00
2022-11-28T19:09:01.081Z,33.95
2022-11-28T19:11:29.321Z,37.33
2022-11-28T19:13:57.483Z,33.00
2022-11-28T19:16:30.644Z,29.20
2022-11-28T19:18:58.032Z,31.55
2022-11-28T19:21:31.502Z,27.08
2022-11-28T19:23:59.609Z,33.00
2022-11-28T19:26:29.664Z,34.80
2022-11-28T19:28:57.190Z,35.45
2022-11-28T19:31:27.288Z,34.88
2022-11-28T19:34:02.178Z,32.95
2022-11-28T19:36:34.390Z,30.65
2022-11-28T19:39:02.211Z,33.67
2022-11-28T19:41:29.532Z,31.90
2022-11-28T19:43:56.989Z,33.92
2022-11-28T19:46:24.111Z,34.85
2022-11-28T19:48:51.818Z,30.92
2022-11-28T19:51:19.981Z,39.88
2022-11-28T19:53:46.753Z,26.52
2022-11-28T19:56:19.137Z,41.90
2022-11-28T19:58:46.893Z,29.25
2022-11-28T20:01:18.050Z,33.45
2022-11-28T20:03:47.682Z,34.10
2022-11-28T20:06:26.635Z,36.58
2022-11-28T20:08:56.549Z,38.65
2022-11-28T20:11:26.404Z,35.85
2022-11-28T20:14:07.767Z,43.03
2022-11-28T20:16:36.059Z,39.10
2022-11-28T20:19:04.787Z,30.88
2022-11-28T20:21:33.335Z,33.13
2022-11-28T20:24:04.372Z,37.80
2022-11-28T20:26:39.052Z,34.00
2022-11-28T20:29:07.197Z,35.58
2022-11-28T20:31:45.315Z,33.70
2022-11-28T20:34:16.024Z,30.20
2022-11-28T20:36:43.565Z,35.17
2022-11-28T20:39:11.058Z,38.55
2022-11-28T20:41:40.195Z,36.50
2022-11-28T20:44:06.728Z,34.42
2022-11-28T20:46:35.380Z,28.05
2022-11-28T20:49:04.686Z,32.83
2022-11-28T20:51:33.299Z,38.25
2022-11-28T20:54:00.840Z,36.90
2022-11-28T20:56:31.671Z,35.70
2022-11-28T20:59:00.577Z,32.03
2022-11-28T21:01:30.221Z,34.42
2022-11-28T21:03:57.313Z,40.70
2022-11-28T21:06:23.868Z,32.53
2022-11-28T21:08:50.572Z,37.75
2022-11-28T21:11:43.459Z,34.28
2022-11-28T21:14:06.305Z,29.35
2022-11-28T21:16:37.313Z,29.85
2022-11-28T21:19:07.437Z,33.47
2022-11-28T21:21:36.018Z,29.95
2022-11-28T21:24:05.729Z,31.52
2022-11-28T21:26:37.630Z,29.83
2022-11-28T21:29:09.028Z,30.83
2022-11-28T21:31:39.327Z,29.40
2022-11-28T21:34:05.946Z,30.42
2022-11-28T21:36:32.590Z,30.20
2022-11-28T21:39:00.810Z,38.83
2022-11-28T21:41:30.531Z,31.90
2022-11-28T21:43:58.463Z,28.02
2022-11-28T21:46:26.698Z,33.53
2022-11-28T21:48:53.547Z,34.85
2022-11-28T21:51:24.754Z,30.77
2022-11-28T21:53:52.272Z,29.05
2022-11-28T21:56:21.846Z,27.95
2022-11-28T21:58:48.283Z,29.42
2022-11-28T22:01:15.349Z,31.35
2022-11-28T22:03:43.843Z,32.65
2022-11-28T22:06:17.724Z,37.20
2022-11-28T22:08:44.556Z,35.13
2022-11-28T22:11:13.212Z,31.65
2022-11-28T22:13:45.851Z,38.60
2022-11-28T22:16:19.766Z,33.33
2022-11-28T22:18:49.267Z,39.58
2022-11-28T22:24:05.341Z,36.92
2022-11-28T22:26:32.623Z,32.97
2022-11-28T22:28:59.223Z,33.85
2022-11-28T22:31:25.903Z,29.58
2022-11-28T22:33:52.954Z,31.77
2022-11-28T22:36:21.272Z,27.85
2022-11-28T22:38:49.052Z,31.40
2022-11-28T22:41:27.840Z,33.85
2022-11-28T22:43:57.228Z,31.45
2022-11-28T22:46:24.216Z,38.63
2022-11-28T22:48:51.698Z,30.15
2022-11-28T22:51:21.270Z,33.63
2022-11-28T22:53:47.993Z,30.45
2022-11-28T22:56:15.648Z,33.95
2022-11-28T22:58:44.449Z,33.40
2022-11-28T23:01:23.884Z,36.30
2022-11-28T23:03:51.610Z,37.05
2022-11-28T23:06:21.381Z,35.83
2022-11-28T23:11:23.710Z,31.33
2022-11-28T23:13:50.866Z,35.60
2022-11-28T23:16:42.213Z,40.97
2022-11-28T23:19:18.320Z,36.13
2022-11-28T23:21:47.765Z,34.60
2022-11-28T23:24:19.110Z,38.28
2022-11-28T23:26:46.395Z,36.45
2022-11-28T23:29:13.970Z,38.15
2022-11-28T23:31:41.816Z,33.15
2022-11-28T23:34:09.947Z,38.55
2022-11-28T23:36:43.218Z,40.92
2022-11-28T23:39:13.326Z,36.55
2022-11-28T23:41:40.569Z,38.85
2022-11-28T23:44:07.205Z,37.55
2022-11-28T23:46:34.523Z,39.92
2022-11-28T23:49:01.111Z,39.22
2022-11-28T23:51:27.682Z,42.58
2022-11-28T23:53:54.298Z,36.90
2022-11-28T23:56:27.518Z,38.90
2022-11-28T23:58:55.797Z,42.35
